sensor_id;sensor_type;location;lat;lon;timestamp;P1;durP1;ratioP1;P2;durP2;ratioP2
44120;SDS011;29783;52.504;13.478;2023-09-08T00:02:26;11.63;;;6.93;;
44120;SDS011;29783;52.504;13.478;2023-09-08T00:04:53;12.60;;;7.22;;
44120;SDS011;29783;52.504;13.478;2023-09-08T00:07:18;19.77;;;7.13;;
44120;SDS011;29783;52.504;13.478;2023-09-08T00:09:44;9.93;;;7.10;;
44120;SDS011;29783;52.504;13.478;2023-09-08T00:12:10;15.75;;;7.45;;
44120;SDS011;29783;52.504;13.478;2023-09-08T00:14:35;12.65;;;7.47;;
44120;SDS011;29783;52.504;13.478;2023-09-08T00:17:01;11.07;;;7.70;;
44120;SDS011;29783;52.504;13.478;2023-09-08T00:19:27;11.35;;;8.07;;
44120;SDS011;29783;52.504;13.478;2023-09-08T00:21:52;14.40;;;8.38;;
44120;SDS011;29783;52.504;13.478;2023-09-08T00:24:18;12.65;;;8.25;;
44120;SDS011;29783;52.504;13.478;2023-09-08T00:26:44;10.15;;;7.90;;
44120;SDS011;29783;52.504;13.478;2023-09-08T00:29:09;18.25;;;7.85;;
44120;SDS011;29783;52.504;13.478;2023-09-08T00:31:35;14.27;;;8.43;;
44120;SDS011;29783;52.504;13.478;2023-09-08T00:34:00;11.30;;;8.35;;
44120;SDS011;29783;52.504;13.478;2023-09-08T00:36:26;12.65;;;9.10;;
44120;SDS011;29783;52.504;13.478;2023-09-08T00:38:52;15.98;;;8.63;;
44120;SDS011;29783;52.504;13.478;2023-09-08T00:41:17;13.43;;;8.45;;
44120;SDS011;29783;52.504;13.478;2023-09-08T00:43:43;16.83;;;9.00;;
44120;SDS011;29783;52.504;13.478;2023-09-08T00:46:09;11.40;;;8.25;;
44120;SDS011;29783;52.504;13.478;2023-09-08T00:48:35;14.25;;;8.20;;
44120;SDS011;29783;52.504;13.478;2023-09-08T00:51:02;12.63;;;8.68;;
44120;SDS011;29783;52.504;13.478;2023-09-08T00:53:30;20.27;;;8.27;;
44120;SDS011;29783;52.504;13.478;2023-09-08T00:55:55;13.55;;;8.48;;
44120;SDS011;29783;52.504;13.478;2023-09-08T00:58:22;13.82;;;8.30;;
44120;SDS011;29783;52.504;13.478;2023-09-08T01:00:47;16.48;;;8.23;;
44120;SDS011;29783;52.504;13.478;2023-09-08T01:03:13;13.57;;;8.77;;
44120;SDS011;29783;52.504;13.478;2023-09-08T01:05:39;13.98;;;8.13;;
44120;SDS011;29783;52.504;13.478;2023-09-08T01:08:05;9.57;;;8.30;;
44120;SDS011;29783;52.504;13.478;2023-09-08T01:10:31;16.35;;;9.38;;
44120;SDS011;29783;52.504;13.478;2023-09-08T01:12:57;9.60;;;7.80;;
44120;SDS011;29783;52.504;13.478;2023-09-08T01:15:23;9.20;;;8.13;;
44120;SDS011;29783;52.504;13.478;2023-09-08T01:17:48;13.00;;;8.02;;
44120;SDS011;29783;52.504;13.478;2023-09-08T01:20:22;14.57;;;8.50;;
44120;SDS011;29783;52.504;13.478;2023-09-08T01:25:55;12.57;;;8.35;;
44120;SDS011;29783;52.504;13.478;2023-09-08T01:28:24;15.27;;;8.63;;
44120;SDS011;29783;52.504;13.478;2023-09-08T01:30:51;10.10;;;8.10;;
44120;SDS011;29783;52.504;13.478;2023-09-08T01:33:17;10.02;;;8.00;;
44120;SDS011;29783;52.504;13.478;2023-09-08T01:35:44;12.63;;;8.25;;
44120;SDS011;29783;52.504;13.478;2023-09-08T01:38:10;11.98;;;8.55;;
44120;SDS011;29783;52.504;13.478;2023-09-08T01:40:36;19.25;;;8.18;;
44120;SDS011;29783;52.504;13.478;2023-09-08T01:43:01;18.38;;;8.60;;
44120;SDS011;29783;52.504;13.478;2023-09-08T01:45:27;12.82;;;8.00;;
44120;SDS011;29783;52.504;13.478;2023-09-08T01:47:52;10.60;;;7.63;;
44120;SDS011;29783;52.504;13.478;2023-09-08T01:50:18;13.75;;;8.60;;
44120;SDS011;29783;52.504;13.478;2023-09-08T01:52:49;12.85;;;8.02;;
44120;SDS011;29783;52.504;13.478;2023-09-08T01:55:15;15.43;;;7.63;;
44120;SDS011;29783;52.504;13.478;2023-09-08T01:57:41;12.40;;;8.43;;
44120;SDS011;29783;52.504;13.478;2023-09-08T02:00:08;12.30;;;8.50;;
44120;SDS011;29783;52.504;13.478;2023-09-08T02:02:34;13.73;;;7.97;;
44120;SDS011;29783;52.504;13.478;2023-09-08T02:05:00;16.70;;;8.07;;
44120;SDS011;29783;52.504;13.478;2023-09-08T02:07:25;20.55;;;8.23;;
44120;SDS011;29783;52.504;13.478;2023-09-08T02:09:51;14.10;;;8.73;;
44120;SDS011;29783;52.504;13.478;2023-09-08T02:12:16;13.10;;;9.15;;
44120;SDS011;29783;52.504;13.478;2023-09-08T02:14:42;12.95;;;8.60;;
44120;SDS011;29783;52.504;13.478;2023-09-08T02:17:08;16.98;;;8.20;;
44120;SDS011;29783;52.504;13.478;2023-09-08T02:19:33;15.45;;;8.60;;
44120;SDS011;29783;52.504;13.478;2023-09-08T02:21:59;13.68;;;9.30;;
44120;SDS011;29783;52.504;13.478;2023-09-08T02:24:24;13.02;;;8.77;;
44120;SDS011;29783;52.504;13.478;2023-09-08T02:26:50;17.27;;;8.73;;
44120;SDS011;29783;52.504;13.478;2023-09-08T02:29:15;12.77;;;8.80;;
44120;SDS011;29783;52.504;13.478;2023-09-08T02:31:41;10.50;;;8.82;;
44120;SDS011;29783;52.504;13.478;2023-09-08T02:34:07;12.48;;;8.82;;
44120;SDS011;29783;52.504;13.478;2023-09-08T02:36:32;13.95;;;8.75;;
44120;SDS011;29783;52.504;13.478;2023-09-08T02:38:58;11.77;;;8.65;;
44120;SDS011;29783;52.504;13.478;2023-09-08T02:41:23;10.82;;;8.82;;
44120;SDS011;29783;52.504;13.478;2023-09-08T02:43:49;15.65;;;8.88;;
44120;SDS011;29783;52.504;13.478;2023-09-08T02:46:15;11.93;;;9.13;;
44120;SDS011;29783;52.504;13.478;2023-09-08T02:48:41;11.77;;;9.07;;
44120;SDS011;29783;52.504;13.478;2023-09-08T02:51:06;11.55;;;8.82;;
44120;SDS011;29783;52.504;13.478;2023-09-08T02:53:32;12.95;;;9.60;;
44120;SDS011;29783;52.504;13.478;2023-09-08T02:55:58;12.13;;;9.02;;
44120;SDS011;29783;52.504;13.478;2023-09-08T02:58:25;14.80;;;9.43;;
44120;SDS011;29783;52.504;13.478;2023-09-08T03:00:51;13.23;;;9.40;;
44120;SDS011;29783;52.504;13.478;2023-09-08T03:03:18;14.02;;;9.15;;
44120;SDS011;29783;52.504;13.478;2023-09-08T03:05:44;27.75;;;9.10;;
44120;SDS011;29783;52.504;13.478;2023-09-08T03:08:09;13.05;;;9.70;;
44120;SDS011;29783;52.504;13.478;2023-09-08T03:10:35;16.83;;;9.75;;
44120;SDS011;29783;52.504;13.478;2023-09-08T03:13:01;14.98;;;9.60;;
44120;SDS011;29783;52.504;13.478;2023-09-08T03:15:27;11.40;;;8.93;;
44120;SDS011;29783;52.504;13.478;2023-09-08T03:17:56;17.75;;;9.23;;
44120;SDS011;29783;52.504;13.478;2023-09-08T03:20:25;13.90;;;10.18;;
44120;SDS011;29783;52.504;13.478;2023-09-08T03:22:52;14.02;;;9.73;;
44120;SDS011;29783;52.504;13.478;2023-09-08T03:25:18;18.02;;;9.27;;
44120;SDS011;29783;52.504;13.478;2023-09-08T03:27:43;17.15;;;10.10;;
44120;SDS011;29783;52.504;13.478;2023-09-08T03:30:09;17.65;;;9.77;;
44120;SDS011;29783;52.504;13.478;2023-09-08T03:32:35;12.98;;;9.43;;
44120;SDS011;29783;52.504;13.478;2023-09-08T03:35:02;14.57;;;10.27;;
44120;SDS011;29783;52.504;13.478;2023-09-08T03:37:29;12.88;;;10.20;;
44120;SDS011;29783;52.504;13.478;2023-09-08T03:39:54;15.50;;;10.30;;
44120;SDS011;29783;52.504;13.478;2023-09-08T03:42:20;14.70;;;10.25;;
44120;SDS011;29783;52.504;13.478;2023-09-08T03:44:45;11.60;;;9.60;;
44120;SDS011;29783;52.504;13.478;2023-09-08T03:47:11;14.20;;;10.55;;
44120;SDS011;29783;52.504;13.478;2023-09-08T03:49:36;17.70;;;9.75;;
44120;SDS011;29783;52.504;13.478;2023-09-08T03:52:02;13.52;;;10.02;;
44120;SDS011;29783;52.504;13.478;2023-09-08T03:54:28;12.07;;;10.75;;
44120;SDS011;29783;52.504;13.478;2023-09-08T03:56:53;15.02;;;10.70;;
44120;SDS011;29783;52.504;13.478;2023-09-08T03:59:19;20.10;;;10.40;;
44120;SDS011;29783;52.504;13.478;2023-09-08T04:01:44;16.17;;;10.90;;
44120;SDS011;29783;52.504;13.478;2023-09-08T04:04:10;16.70;;;10.82;;
44120;SDS011;29783;52.504;13.478;2023-09-08T04:06:36;12.80;;;9.98;;
44120;SDS011;29783;52.504;13.478;2023-09-08T04:09:01;16.40;;;11.40;;
44120;SDS011;29783;52.504;13.478;2023-09-08T04:11:27;17.83;;;10.68;;
44120;SDS011;29783;52.504;13.478;2023-09-08T04:13:53;14.38;;;10.98;;
44120;SDS011;29783;52.504;13.478;2023-09-08T04:16:18;18.45;;;10.88;;
44120;SDS011;29783;52.504;13.478;2023-09-08T04:18:44;15.13;;;10.98;;
44120;SDS011;29783;52.504;13.478;2023-09-08T04:21:09;17.98;;;10.77;;
44120;SDS011;29783;52.504;13.478;2023-09-08T04:23:35;16.88;;;11.15;;
44120;SDS011;29783;52.504;13.478;2023-09-08T04:26:01;17.08;;;11.10;;
44120;SDS011;29783;52.504;13.478;2023-09-08T04:28:27;17.88;;;11.18;;
44120;SDS011;29783;52.504;13.478;2023-09-08T04:30:52;28.23;;;12.30;;
44120;SDS011;29783;52.504;13.478;2023-09-08T04:33:18;18.70;;;12.15;;
44120;SDS011;29783;52.504;13.478;2023-09-08T04:35:44;22.42;;;12.38;;
44120;SDS011;29783;52.504;13.478;2023-09-08T04:38:09;15.18;;;11.38;;
44120;SDS011;29783;52.504;13.478;2023-09-08T04:40:36;18.52;;;11.02;;
44120;SDS011;29783;52.504;13.478;2023-09-08T04:43:04;15.07;;;11.77;;
44120;SDS011;29783;52.504;13.478;2023-09-08T04:45:30;14.85;;;11.82;;
44120;SDS011;29783;52.504;13.478;2023-09-08T04:47:55;17.02;;;11.65;;
44120;SDS011;29783;52.504;13.478;2023-09-08T04:50:22;17.00;;;11.10;;
44120;SDS011;29783;52.504;13.478;2023-09-08T04:52:48;17.30;;;11.70;;
44120;SDS011;29783;52.504;13.478;2023-09-08T04:55:13;22.10;;;10.95;;
44120;SDS011;29783;52.504;13.478;2023-09-08T04:57:39;15.30;;;11.88;;
44120;SDS011;29783;52.504;13.478;2023-09-08T05:00:06;16.08;;;11.38;;
44120;SDS011;29783;52.504;13.478;2023-09-08T05:02:32;15.93;;;10.80;;
44120;SDS011;29783;52.504;13.478;2023-09-08T05:04:59;15.13;;;10.85;;
44120;SDS011;29783;52.504;13.478;2023-09-08T05:07:25;19.45;;;11.35;;
44120;SDS011;29783;52.504;13.478;2023-09-08T05:09:51;31.00;;;11.88;;
44120;SDS011;29783;52.504;13.478;2023-09-08T05:12:16;16.83;;;11.43;;
44120;SDS011;29783;52.504;13.478;2023-09-08T05:14:42;14.95;;;10.60;;
44120;SDS011;29783;52.504;13.478;2023-09-08T05:17:08;15.40;;;9.93;;
44120;SDS011;29783;52.504;13.478;2023-09-08T05:19:33;27.35;;;11.40;;
44120;SDS011;29783;52.504;13.478;2023-09-08T05:21:59;18.90;;;11.27;;
44120;SDS011;29783;52.504;13.478;2023-09-08T05:24:24;15.13;;;10.20;;
44120;SDS011;29783;52.504;13.478;2023-09-08T05:26:51;12.02;;;10.57;;
44120;SDS011;29783;52.504;13.478;2023-09-08T05:29:17;12.77;;;10.82;;
44120;SDS011;29783;52.504;13.478;2023-09-08T05:31:43;23.10;;;11.63;;
44120;SDS011;29783;52.504;13.478;2023-09-08T05:34:09;17.60;;;11.07;;
44120;SDS011;29783;52.504;13.478;2023-09-08T05:36:35;16.40;;;11.10;;
44120;SDS011;29783;52.504;13.478;2023-09-08T05:39:03;15.30;;;10.90;;
44120;SDS011;29783;52.504;13.478;2023-09-08T05:41:29;22.33;;;12.00;;
44120;SDS011;29783;52.504;13.478;2023-09-08T05:43:55;20.30;;;10.57;;
44120;SDS011;29783;52.504;13.478;2023-09-08T05:46:20;17.67;;;10.65;;
44120;SDS011;29783;52.504;13.478;2023-09-08T05:48:47;19.38;;;9.52;;
44120;SDS011;29783;52.504;13.478;2023-09-08T05:51:13;15.95;;;10.02;;
44120;SDS011;29783;52.504;13.478;2023-09-08T05:53:40;16.48;;;10.35;;
44120;SDS011;29783;52.504;13.478;2023-09-08T05:56:06;14.00;;;9.93;;
44120;SDS011;29783;52.504;13.478;2023-09-08T05:58:32;20.80;;;10.43;;
44120;SDS011;29783;52.504;13.478;2023-09-08T06:00:58;16.00;;;9.98;;
44120;SDS011;29783;52.504;13.478;2023-09-08T06:03:26;21.63;;;9.68;;
44120;SDS011;29783;52.504;13.478;2023-09-08T06:05:51;13.35;;;10.30;;
44120;SDS011;29783;52.504;13.478;2023-09-08T06:08:17;12.85;;;10.13;;
44120;SDS011;29783;52.504;13.478;2023-09-08T06:10:42;17.42;;;9.85;;
44120;SDS011;29783;52.504;13.478;2023-09-08T06:13:08;19.15;;;9.68;;
44120;SDS011;29783;52.504;13.478;2023-09-08T06:15:34;14.27;;;9.88;;
44120;SDS011;29783;52.504;13.478;2023-09-08T06:17:59;22.33;;;9.25;;
44120;SDS011;29783;52.504;13.478;2023-09-08T06:20:25;20.05;;;10.02;;
44120;SDS011;29783;52.504;13.478;2023-09-08T06:22:51;13.77;;;9.00;;
44120;SDS011;29783;52.504;13.478;2023-09-08T06:25:17;13.85;;;9.63;;
44120;SDS011;29783;52.504;13.478;2023-09-08T06:27:43;21.35;;;9.07;;
44120;SDS011;29783;52.504;13.478;2023-09-08T06:30:08;20.05;;;8.73;;
44120;SDS011;29783;52.504;13.478;2023-09-08T06:32:34;14.73;;;9.13;;
44120;SDS011;29783;52.504;13.478;2023-09-08T06:35:00;18.42;;;9.27;;
44120;SDS011;29783;52.504;13.478;2023-09-08T06:37:26;16.30;;;9.05;;
44120;SDS011;29783;52.504;13.478;2023-09-08T06:39:53;17.48;;;8.32;;
44120;SDS011;29783;52.504;13.478;2023-09-08T06:42:19;12.90;;;8.35;;
44120;SDS011;29783;52.504;13.478;2023-09-08T06:44:45;15.25;;;8.35;;
44120;SDS011;29783;52.504;13.478;2023-09-08T06:47:10;16.55;;;10.00;;
44120;SDS011;29783;52.504;13.478;2023-09-08T06:49:36;16.55;;;10.48;;
44120;SDS011;29783;52.504;13.478;2023-09-08T06:52:02;21.67;;;8.50;;
44120;SDS011;29783;52.504;13.478;2023-09-08T06:54:27;16.90;;;8.90;;
44120;SDS011;29783;52.504;13.478;2023-09-08T06:56:53;15.35;;;8.25;;
44120;SDS011;29783;52.504;13.478;2023-09-08T06:59:18;16.50;;;8.00;;
44120;SDS011;29783;52.504;13.478;2023-09-08T07:01:44;16.40;;;8.25;;
44120;SDS011;29783;52.504;13.478;2023-09-08T07:04:10;13.88;;;8.60;;
44120;SDS011;29783;52.504;13.478;2023-09-08T07:06:36;12.80;;;7.47;;
44120;SDS011;29783;52.504;13.478;2023-09-08T07:09:03;16.05;;;7.55;;
44120;SDS011;29783;52.504;13.478;2023-09-08T07:11:29;10.48;;;7.75;;
44120;SDS011;29783;52.504;13.478;2023-09-08T07:13:55;17.48;;;8.15;;
44120;SDS011;29783;52.504;13.478;2023-09-08T07:16:21;10.60;;;7.97;;
44120;SDS011;29783;52.504;13.478;2023-09-08T07:18:47;18.38;;;7.75;;
44120;SDS011;29783;52.504;13.478;2023-09-08T07:21:13;16.05;;;8.40;;
44120;SDS011;29783;52.504;13.478;2023-09-08T07:23:38;12.35;;;7.50;;
44120;SDS011;29783;52.504;13.478;2023-09-08T07:26:04;14.85;;;8.38;;
44120;SDS011;29783;52.504;13.478;2023-09-08T07:28:30;11.15;;;7.55;;
44120;SDS011;29783;52.504;13.478;2023-09-08T07:31:00;20.08;;;7.70;;
44120;SDS011;29783;52.504;13.478;2023-09-08T07:33:27;22.40;;;8.48;;
44120;SDS011;29783;52.504;13.478;2023-09-08T07:35:53;13.30;;;7.15;;
44120;SDS011;29783;52.504;13.478;2023-09-08T07:38:19;13.32;;;7.63;;
44120;SDS011;29783;52.504;13.478;2023-09-08T07:40:44;15.85;;;7.70;;
44120;SDS011;29783;52.504;13.478;2023-09-08T07:43:10;17.15;;;7.53;;
44120;SDS011;29783;52.504;13.478;2023-09-08T07:45:35;10.98;;;6.78;;
44120;SDS011;29783;52.504;13.478;2023-09-08T07:48:01;14.93;;;6.88;;
44120;SDS011;29783;52.504;13.478;2023-09-08T08:01:44;16.65;;;6.60;;
44120;SDS011;29783;52.504;13.478;2023-09-08T08:04:11;15.77;;;7.13;;
44120;SDS011;29783;52.504;13.478;2023-09-08T08:06:38;14.02;;;6.13;;
44120;SDS011;29783;52.504;13.478;2023-09-08T08:09:09;21.88;;;6.45;;
44120;SDS011;29783;52.504;13.478;2023-09-08T08:11:35;12.65;;;6.28;;
44120;SDS011;29783;52.504;13.478;2023-09-08T08:14:44;9.40;;;6.40;;
44120;SDS011;29783;52.504;13.478;2023-09-08T08:21:11;25.52;;;6.70;;
44120;SDS011;29783;52.504;13.478;2023-09-08T08:23:45;10.38;;;6.47;;
44120;SDS011;29783;52.504;13.478;2023-09-08T08:30:27;10.73;;;6.30;;
44120;SDS011;29783;52.504;13.478;2023-09-08T08:36:41;9.60;;;6.03;;
44120;SDS011;29783;52.504;13.478;2023-09-08T08:43:09;9.00;;;6.00;;
44120;SDS011;29783;52.504;13.478;2023-09-08T08:49:55;9.90;;;5.47;;
44120;SDS011;29783;52.504;13.478;2023-09-08T09:06:26;7.50;;;5.03;;
44120;SDS011;29783;52.504;13.478;2023-09-08T09:08:53;10.73;;;4.72;;
44120;SDS011;29783;52.504;13.478;2023-09-08T09:14:45;7.55;;;4.93;;
44120;SDS011;29783;52.504;13.478;2023-09-08T09:17:34;8.93;;;5.38;;
44120;SDS011;29783;52.504;13.478;2023-09-08T09:26:44;8.13;;;4.85;;
44120;SDS011;29783;52.504;13.478;2023-09-08T09:32:32;7.22;;;4.22;;
44120;SDS011;29783;52.504;13.478;2023-09-08T09:35:00;15.25;;;4.72;;
44120;SDS011;29783;52.504;13.478;2023-09-08T09:37:26;6.70;;;4.18;;
44120;SDS011;29783;52.504;13.478;2023-09-08T09:39:53;11.07;;;4.55;;
44120;SDS011;29783;52.504;13.478;2023-09-08T09:42:20;9.93;;;4.80;;
44120;SDS011;29783;52.504;13.478;2023-09-08T09:44:46;10.13;;;4.90;;
44120;SDS011;29783;52.504;13.478;2023-09-08T09:47:13;11.30;;;4.80;;
44120;SDS011;29783;52.504;13.478;2023-09-08T09:49:45;7.22;;;4.10;;
44120;SDS011;29783;52.504;13.478;2023-09-08T09:52:12;8.43;;;4.38;;
44120;SDS011;29783;52.504;13.478;2023-09-08T09:54:42;13.43;;;4.22;;
44120;SDS011;29783;52.504;13.478;2023-09-08T09:57:12;6.93;;;4.20;;
44120;SDS011;29783;52.504;13.478;2023-09-08T09:59:42;8.50;;;4.70;;
44120;SDS011;29783;52.504;13.478;2023-09-08T10:02:14;14.55;;;3.90;;
44120;SDS011;29783;52.504;13.478;2023-09-08T10:04:40;12.00;;;4.03;;
44120;SDS011;29783;52.504;13.478;2023-09-08T10:07:06;13.20;;;4.30;;
44120;SDS011;29783;52.504;13.478;2023-09-08T10:09:32;8.20;;;4.35;;
44120;SDS011;29783;52.504;13.478;2023-09-08T10:11:59;10.60;;;3.90;;
44120;SDS011;29783;52.504;13.478;2023-09-08T10:14:30;15.48;;;4.00;;
44120;SDS011;29783;52.504;13.478;2023-09-08T10:17:00;11.93;;;4.50;;
44120;SDS011;29783;52.504;13.478;2023-09-08T10:19:26;12.68;;;4.38;;
44120;SDS011;29783;52.504;13.478;2023-09-08T10:21:54;8.93;;;4.40;;
44120;SDS011;29783;52.504;13.478;2023-09-08T10:24:43;9.57;;;4.53;;
44120;SDS011;29783;52.504;13.478;2023-09-08T10:27:11;11.77;;;4.03;;
44120;SDS011;29783;52.504;13.478;2023-09-08T10:29:37;7.15;;;4.05;;
44120;SDS011;29783;52.504;13.478;2023-09-08T10:32:04;7.72;;;3.97;;
44120;SDS011;29783;52.504;13.478;2023-09-08T10:34:32;7.05;;;4.05;;
44120;SDS011;29783;52.504;13.478;2023-09-08T10:36:59;8.43;;;4.40;;
44120;SDS011;29783;52.504;13.478;2023-09-08T10:39:29;7.40;;;4.18;;
44120;SDS011;29783;52.504;13.478;2023-09-08T10:47:18;12.77;;;4.40;;
44120;SDS011;29783;52.504;13.478;2023-09-08T10:50:04;5.45;;;3.58;;
44120;SDS011;29783;52.504;13.478;2023-09-08T10:52:30;9.38;;;3.85;;
44120;SDS011;29783;52.504;13.478;2023-09-08T10:54:58;9.18;;;4.45;;
44120;SDS011;29783;52.504;13.478;2023-09-08T10:57:24;7.55;;;3.92;;
44120;SDS011;29783;52.504;13.478;2023-09-08T11:00:05;13.88;;;4.88;;
44120;SDS011;29783;52.504;13.478;2023-09-08T11:02:41;5.28;;;3.60;;
44120;SDS011;29783;52.504;13.478;2023-09-08T11:05:13;9.98;;;4.10;;
44120;SDS011;29783;52.504;13.478;2023-09-08T11:07:41;11.27;;;4.07;;
44120;SDS011;29783;52.504;13.478;2023-09-08T11:10:08;5.25;;;4.10;;
44120;SDS011;29783;52.504;13.478;2023-09-08T11:12:35;11.45;;;4.15;;
44120;SDS011;29783;52.504;13.478;2023-09-08T11:15:04;11.13;;;4.10;;
44120;SDS011;29783;52.504;13.478;2023-09-08T11:17:33;6.85;;;3.80;;
44120;SDS011;29783;52.504;13.478;2023-09-08T11:20:01;6.55;;;4.20;;
44120;SDS011;29783;52.504;13.478;2023-09-08T11:22:35;10.32;;;3.97;;
44120;SDS011;29783;52.504;13.478;2023-09-08T11:25:02;10.27;;;4.40;;
44120;SDS011;29783;52.504;13.478;2023-09-08T11:27:30;8.27;;;3.65;;
44120;SDS011;29783;52.504;13.478;2023-09-08T11:29:56;6.88;;;3.60;;
44120;SDS011;29783;52.504;13.478;2023-09-08T11:32:22;6.90;;;3.72;;
44120;SDS011;29783;52.504;13.478;2023-09-08T11:34:48;8.38;;;3.60;;
44120;SDS011;29783;52.504;13.478;2023-09-08T11:37:14;10.02;;;4.03;;
44120;SDS011;29783;52.504;13.478;2023-09-08T11:39:44;8.82;;;3.33;;
44120;SDS011;29783;52.504;13.478;2023-09-08T11:42:11;7.82;;;3.67;;
44120;SDS011;29783;52.504;13.478;2023-09-08T11:44:38;8.18;;;3.97;;
44120;SDS011;29783;52.504;13.478;2023-09-08T11:47:08;5.28;;;3.80;;
44120;SDS011;29783;52.504;13.478;2023-09-08T11:52:00;7.25;;;3.95;;
44120;SDS011;29783;52.504;13.478;2023-09-08T11:54:27;8.05;;;3.72;;
44120;SDS011;29783;52.504;13.478;2023-09-08T11:56:53;5.43;;;3.60;;
44120;SDS011;29783;52.504;13.478;2023-09-08T11:59:20;7.53;;;3.90;;
44120;SDS011;29783;52.504;13.478;2023-09-08T12:01:45;4.22;;;3.83;;
44120;SDS011;29783;52.504;13.478;2023-09-08T12:04:17;7.10;;;4.40;;
44120;SDS011;29783;52.504;13.478;2023-09-08T12:06:45;10.50;;;4.70;;
44120;SDS011;29783;52.504;13.478;2023-09-08T12:09:11;7.05;;;4.10;;
44120;SDS011;29783;52.504;13.478;2023-09-08T12:11:37;8.90;;;3.83;;
44120;SDS011;29783;52.504;13.478;2023-09-08T12:14:07;6.75;;;3.67;;
44120;SDS011;29783;52.504;13.478;2023-09-08T12:16:35;9.13;;;3.83;;
44120;SDS011;29783;52.504;13.478;2023-09-08T12:19:01;8.98;;;3.50;;
44120;SDS011;29783;52.504;13.478;2023-09-08T12:21:27;6.13;;;3.67;;
44120;SDS011;29783;52.504;13.478;2023-09-08T12:23:53;5.00;;;3.35;;
44120;SDS011;29783;52.504;13.478;2023-09-08T12:26:20;5.80;;;4.07;;
44120;SDS011;29783;52.504;13.478;2023-09-08T12:28:46;8.93;;;3.55;;
44120;SDS011;29783;52.504;13.478;2023-09-08T12:31:13;6.50;;;3.40;;
44120;SDS011;29783;52.504;13.478;2023-09-08T12:33:39;5.25;;;3.20;;
44120;SDS011;29783;52.504;13.478;2023-09-08T12:36:14;10.98;;;4.72;;
44120;SDS011;29783;52.504;13.478;2023-09-08T12:38:46;5.85;;;3.13;;
44120;SDS011;29783;52.504;13.478;2023-09-08T12:41:13;15.32;;;2.88;;
44120;SDS011;29783;52.504;13.478;2023-09-08T12:43:38;7.88;;;2.90;;
44120;SDS011;29783;52.504;13.478;2023-09-08T12:46:04;10.00;;;3.00;;
44120;SDS011;29783;52.504;13.478;2023-09-08T12:48:30;4.13;;;2.70;;
44120;SDS011;29783;52.504;13.478;2023-09-08T12:50:55;5.55;;;2.88;;
44120;SDS011;29783;52.504;13.478;2023-09-08T12:53:21;5.82;;;2.78;;
44120;SDS011;29783;52.504;13.478;2023-09-08T12:55:48;6.55;;;3.08;;
44120;SDS011;29783;52.504;13.478;2023-09-08T12:58:14;10.05;;;2.83;;
44120;SDS011;29783;52.504;13.478;2023-09-08T13:00:40;3.20;;;2.55;;
44120;SDS011;29783;52.504;13.478;2023-09-08T13:03:05;8.10;;;2.53;;
44120;SDS011;29783;52.504;13.478;2023-09-08T13:05:31;5.22;;;2.50;;
44120;SDS011;29783;52.504;13.478;2023-09-08T13:07:57;12.25;;;3.05;;
44120;SDS011;29783;52.504;13.478;2023-09-08T13:10:23;4.60;;;2.20;;
44120;SDS011;29783;52.504;13.478;2023-09-08T13:12:49;4.32;;;2.35;;
44120;SDS011;29783;52.504;13.478;2023-09-08T13:15:14;5.15;;;2.72;;
44120;SDS011;29783;52.504;13.478;2023-09-08T13:17:40;3.03;;;2.22;;
44120;SDS011;29783;52.504;13.478;2023-09-08T13:20:06;6.65;;;2.15;;
44120;SDS011;29783;52.504;13.478;2023-09-08T13:22:32;6.32;;;2.67;;
44120;SDS011;29783;52.504;13.478;2023-09-08T13:24:58;8.02;;;2.85;;
44120;SDS011;29783;52.504;13.478;2023-09-08T13:27:24;4.85;;;2.50;;
44120;SDS011;29783;52.504;13.478;2023-09-08T13:29:49;9.45;;;2.17;;
44120;SDS011;29783;52.504;13.478;2023-09-08T13:32:15;3.15;;;2.38;;
44120;SDS011;29783;52.504;13.478;2023-09-08T13:34:40;6.97;;;2.70;;
44120;SDS011;29783;52.504;13.478;2023-09-08T13:37:08;5.55;;;2.67;;
44120;SDS011;29783;52.504;13.478;2023-09-08T13:39:34;10.85;;;3.00;;
44120;SDS011;29783;52.504;13.478;2023-09-08T13:42:00;7.57;;;2.97;;
44120;SDS011;29783;52.504;13.478;2023-09-08T13:44:26;3.95;;;2.60;;
44120;SDS011;29783;52.504;13.478;2023-09-08T13:46:53;5.70;;;2.72;;
44120;SDS011;29783;52.504;13.478;2023-09-08T13:49:19;18.40;;;3.20;;
44120;SDS011;29783;52.504;13.478;2023-09-08T13:51:46;3.97;;;2.28;;
44120;SDS011;29783;52.504;13.478;2023-09-08T13:54:12;7.85;;;2.90;;
44120;SDS011;29783;52.504;13.478;2023-09-08T13:56:38;6.10;;;2.60;;
44120;SDS011;29783;52.504;13.478;2023-09-08T13:59:05;7.70;;;2.67;;
44120;SDS011;29783;52.504;13.478;2023-09-08T14:01:32;6.20;;;2.58;;
44120;SDS011;29783;52.504;13.478;2023-09-08T14:03:59;3.65;;;2.33;;
44120;SDS011;29783;52.504;13.478;2023-09-08T14:06:25;4.43;;;2.47;;
44120;SDS011;29783;52.504;13.478;2023-09-08T14:08:51;3.83;;;2.50;;
44120;SDS011;29783;52.504;13.478;2023-09-08T14:11:17;5.68;;;2.50;;
44120;SDS011;29783;52.504;13.478;2023-09-08T14:13:44;2.88;;;2.15;;
44120;SDS011;29783;52.504;13.478;2023-09-08T14:16:13;4.75;;;2.80;;
44120;SDS011;29783;52.504;13.478;2023-09-08T14:18:39;6.70;;;2.38;;
44120;SDS011;29783;52.504;13.478;2023-09-08T14:21:05;4.15;;;2.60;;
44120;SDS011;29783;52.504;13.478;2023-09-08T14:23:32;12.52;;;2.45;;
44120;SDS011;29783;52.504;13.478;2023-09-08T14:25:59;6.32;;;2.58;;
44120;SDS011;29783;52.504;13.478;2023-09-08T14:28:25;5.65;;;2.45;;
44120;SDS011;29783;52.504;13.478;2023-09-08T14:30:52;8.52;;;2.50;;
44120;SDS011;29783;52.504;13.478;2023-09-08T14:33:18;21.40;;;2.85;;
44120;SDS011;29783;52.504;13.478;2023-09-08T14:35:44;6.53;;;2.63;;
44120;SDS011;29783;52.504;13.478;2023-09-08T14:38:12;9.32;;;2.92;;
44120;SDS011;29783;52.504;13.478;2023-09-08T14:40:37;8.52;;;2.60;;
44120;SDS011;29783;52.504;13.478;2023-09-08T14:43:03;5.78;;;2.40;;
44120;SDS011;29783;52.504;13.478;2023-09-08T14:45:29;8.30;;;2.70;;
44120;SDS011;29783;52.504;13.478;2023-09-08T14:47:54;8.35;;;2.75;;
44120;SDS011;29783;52.504;13.478;2023-09-08T14:50:20;5.25;;;2.88;;
44120;SDS011;29783;52.504;13.478;2023-09-08T14:52:46;4.40;;;2.70;;
44120;SDS011;29783;52.504;13.478;2023-09-08T14:55:11;5.60;;;2.78;;
44120;SDS011;29783;52.504;13.478;2023-09-08T14:57:37;4.72;;;2.40;;
44120;SDS011;29783;52.504;13.478;2023-09-08T15:00:03;5.18;;;3.00;;
44120;SDS011;29783;52.504;13.478;2023-09-08T15:02:29;9.63;;;2.92;;
44120;SDS011;29783;52.504;13.478;2023-09-08T15:04:55;10.38;;;2.95;;
44120;SDS011;29783;52.504;13.478;2023-09-08T15:07:21;3.90;;;2.92;;
44120;SDS011;29783;52.504;13.478;2023-09-08T15:09:47;5.30;;;3.05;;
44120;SDS011;29783;52.504;13.478;2023-09-08T15:12:12;12.27;;;2.80;;
44120;SDS011;29783;52.504;13.478;2023-09-08T15:14:38;6.63;;;2.80;;
44120;SDS011;29783;52.504;13.478;2023-09-08T15:17:04;14.45;;;2.67;;
44120;SDS011;29783;52.504;13.478;2023-09-08T15:19:31;4.00;;;2.80;;
44120;SDS011;29783;52.504;13.478;2023-09-08T15:21:58;4.25;;;2.50;;
44120;SDS011;29783;52.504;13.478;2023-09-08T15:24:23;5.72;;;2.90;;
44120;SDS011;29783;52.504;13.478;2023-09-08T15:26:49;9.23;;;2.92;;
44120;SDS011;29783;52.504;13.478;2023-09-08T15:29:15;10.45;;;3.03;;
44120;SDS011;29783;52.504;13.478;2023-09-08T15:31:41;9.02;;;3.10;;